Time;durP1;ratioP1;P1;durP2;ratioP2;P2;SDS_P1;SDS_P2;PMS_P1;PMS_P2;Temp;Humidity;BMP_temperature;BMP_pressure;BME280_temperature;BME280_humidity;BME280_pressure;Samples;Min_cycle;Max_cycle;Signal;HPM_P1;HPM_P2
2022/12/16 00:01:21;;;;;;;3.90;3.13;;;-8.60;97.30;;;;;;4959718;28;20970;-81
2022/12/16 00:03:49;;;;;;;8.20;5.83;;;-8.60;97.30;;;;;;4958026;28;20431;-86
2022/12/16 00:06:15;;;;;;;2.73;2.50;;;-8.60;97.30;;;;;;4951280;29;20511;-85
2022/12/16 00:08:40;;;;;;;3.57;2.70;;;-8.60;97.30;;;;;;4959580;28;20434;-83
2022/12/16 00:11:08;;;;;;;6.73;5.90;;;-8.50;97.30;;;;;;4962904;28;20727;-82
2022/12/16 00:13:35;;;;;;;3.30;3.10;;;-8.50;97.30;;;;;;4962155;28;20246;-81
2022/12/16 00:16:15;;;;;;;5.67;5.37;;;-8.50;97.30;;;;;;4978737;28;20429;-86
2022/12/16 00:18:40;;;;;;;2.77;2.57;;;-8.50;97.30;;;;;;4948507;28;20998;-87
2022/12/16 00:21:07;;;;;;;1.73;1.63;;;-8.50;97.30;;;;;;4957821;28;20500;-87
2022/12/16 00:23:33;;;;;;;6.83;4.97;;;-8.40;97.30;;;;;;4958203;28;20183;-86
2022/12/16 00:25:59;;;;;;;4.17;3.93;;;-8.40;97.30;;;;;;4949229;28;20427;-86
2022/12/16 00:28:25;;;;;;;3.40;3.17;;;-8.40;97.30;;;;;;4957956;28;20434;-88
2022/12/16 00:30:53;;;;;;;2.50;2.30;;;-8.40;97.30;;;;;;4958053;28;20244;-88
2022/12/16 00:33:20;;;;;;;4.77;2.93;;;-8.40;97.30;;;;;;4957934;28;20822;-86
2022/12/16 00:35:46;;;;;;;3.43;3.23;;;-8.30;97.30;;;;;;4945294;28;20518;-86
2022/12/16 00:38:12;;;;;;;2.33;2.13;;;-8.30;97.30;;;;;;4957442;28;20965;-86
2022/12/16 00:40:37;;;;;;;6.43;6.07;;;-8.20;97.30;;;;;;4959175;28;20437;-90
2022/12/16 00:43:05;;;;;;;2.67;2.47;;;-8.20;97.30;;;;;;4958302;28;20569;-87
2022/12/16 00:45:30;;;;;;;10.63;4.67;;;-8.20;97.30;;;;;;4951330;29;20600;-87
2022/12/16 00:47:56;;;;;;;1.60;1.50;;;-8.10;97.30;;;;;;4939281;28;20446;-91
2022/12/16 00:50:22;;;;;;;4.30;4.00;;;-8.10;97.30;;;;;;4957293;28;20213;-89
2022/12/16 00:52:47;;;;;;;4.57;3.43;;;-8.10;97.30;;;;;;4957384;28;20426;-86
2022/12/16 00:55:14;;;;;;;3.70;3.20;;;-8.10;97.30;;;;;;4957224;28;20218;-89
2022/12/16 00:57:40;;;;;;;7.50;5.10;;;-8.10;97.30;;;;;;4960119;28;20238;-87
2022/12/16 01:00:11;;;;;;;4.87;4.53;;;-8.10;97.30;;;;;;4957107;28;20419;-86
2022/12/16 01:02:40;;;;;;;2.67;2.43;;;-8.10;97.30;;;;;;4962384;28;20215;-89
2022/12/16 01:05:08;;;;;;;3.10;2.77;;;-8.10;97.30;;;;;;4983248;28;20455;-94
2022/12/16 01:07:34;;;;;;;2.30;2.10;;;-8.00;97.30;;;;;;4969249;28;20569;-86
2022/12/16 01:10:00;;;;;;;2.73;2.53;;;-8.00;97.30;;;;;;4956520;28;20426;-87
2022/12/16 01:12:26;;;;;;;2.47;2.27;;;-8.00;97.30;;;;;;4956900;28;20510;-88
2022/12/16 01:14:51;;;;;;;5.03;4.20;;;-7.90;97.30;;;;;;4961568;28;20571;-87
2022/12/16 01:17:17;;;;;;;10.70;6.07;;;-7.90;97.30;;;;;;4953091;28;20261;-86
2022/12/16 01:19:42;;;;;;;5.67;3.83;;;-7.90;97.30;;;;;;4950912;28;20266;-86
2022/12/16 01:22:08;;;;;;;2.97;2.77;;;-7.90;97.30;;;;;;4944742;28;20706;-88
2022/12/16 01:24:33;;;;;;;2.00;1.87;;;-7.80;97.30;;;;;;4956698;28;20194;-87
2022/12/16 01:26:59;;;;;;;2.33;1.70;;;-7.80;97.30;;;;;;4950066;29;20202;-87
2022/12/16 01:29:24;;;;;;;3.37;3.00;;;-7.80;97.30;;;;;;4966586;28;20175;-89
2022/12/16 01:31:50;;;;;;;9.40;3.37;;;-7.80;97.30;;;;;;4949930;29;20219;-87
2022/12/16 01:34:16;;;;;;;6.93;3.67;;;-7.80;97.30;;;;;;4966069;28;20180;-88
2022/12/16 01:36:42;;;;;;;4.27;4.00;;;-7.80;97.30;;;;;;4956483;28;20215;-87
2022/12/16 01:39:11;;;;;;;7.37;5.00;;;-7.80;97.30;;;;;;4955667;28;20189;-87
2022/12/16 01:41:37;;;;;;;2.23;2.03;;;-7.80;97.30;;;;;;4938007;29;20460;-87
2022/12/16 01:44:17;;;;;;;11.03;5.90;;;-7.80;97.30;;;;;;4952018;28;20430;-87
2022/12/16 01:46:49;;;;;;;5.00;3.60;;;-7.80;97.30;;;;;;4947332;28;20851;-87
2022/12/16 01:49:27;;;;;;;1.67;1.60;;;-7.80;97.30;;;;;;4952122;28;20426;-87
2022/12/16 01:51:59;;;;;;;8.83;5.83;;;-7.80;97.30;;;;;;4956309;28;20427;-88
2022/12/16 01:54:33;;;;;;;4.63;4.33;;;-7.80;97.30;;;;;;4972049;28;20503;-88
2022/12/16 01:57:08;;;;;;;5.80;3.93;;;-7.80;97.30;;;;;;4943282;28;20454;-87
2022/12/16 01:59:36;;;;;;;1.90;1.80;;;-7.80;97.30;;;;;;4956420;28;20418;-87
2022/12/16 02:02:02;;;;;;;4.90;4.60;;;-7.80;97.30;;;;;;4955782;28;20481;-87
2022/12/16 02:04:27;;;;;;;2.73;2.53;;;-7.80;97.30;;;;;;4956026;28;20418;-86
2022/12/16 02:06:54;;;;;;;1.80;1.70;;;-7.80;97.30;;;;;;4955974;28;20447;-87
2022/12/16 02:09:20;;;;;;;6.70;3.80;;;-7.80;97.30;;;;;;4955147;28;20651;-86
2022/12/16 02:12:22;;;;;;;3.97;3.77;;;-7.80;97.30;;;;;;4955140;28;20435;-87
2022/12/16 02:15:23;;;;;;;3.23;3.10;;;-7.80;97.30;;;;;;4938094;28;20429;-87
2022/12/16 02:17:51;;;;;;;14.30;6.37;;;-7.70;97.30;;;;;;4947208;28;20489;-89
2022/12/16 02:20:38;;;;;;;7.50;3.80;;;-7.70;97.30;;;;;;4972041;28;20464;-86
2022/12/16 02:23:39;;;;;;;2.43;2.23;;;-7.70;97.30;;;;;;4943705;28;20783;-88
2022/12/16 02:26:29;;;;;;;3.80;3.60;;;-7.70;97.30;;;;;;4955643;28;20997;-87
2022/12/16 02:29:04;;;;;;;5.40;4.50;;;-7.60;97.30;;;;;;4948455;29;20506;-87
2022/12/16 02:31:54;;;;;;;3.03;2.80;;;-7.60;97.30;;;;;;4968107;28;20426;-86
2022/12/16 02:34:29;;;;;;;19.90;3.80;;;-7.60;97.30;;;;;;4954075;28;20482;-88
2022/12/16 02:37:19;;;;;;;3.07;2.37;;;-7.60;97.30;;;;;;4946009;28;20469;-86
2022/12/16 02:39:50;;;;;;;12.27;4.00;;;-7.60;97.30;;;;;;4955094;28;20437;-86
2022/12/16 02:42:30;;;;;;;4.23;3.30;;;-7.60;97.30;;;;;;4955271;28;20496;-87
2022/12/16 02:45:14;;;;;;;1.97;1.87;;;-7.60;97.30;;;;;;4953987;28;20461;-88
2022/12/16 02:50:31;;;;;;;10.33;3.80;;;-7.60;97.30;;;;;;5010350;28;20468;-89
2022/12/16 02:52:59;;;;;;;3.90;3.70;;;-7.60;97.30;;;;;;4994354;28;20416;-88
2022/12/16 02:55:39;;;;;;;2.27;2.07;;;-7.70;97.30;;;;;;4994049;28;20579;-85
2022/12/16 02:58:24;;;;;;;1.80;1.70;;;-7.60;97.30;;;;;;4985000;28;20532;-86
2022/12/16 03:01:15;;;;;;;2.27;2.07;;;-7.60;97.30;;;;;;4981065;28;20416;-88
2022/12/16 03:03:53;;;;;;;3.70;3.50;;;-7.60;97.30;;;;;;4994619;28;20438;-88
2022/12/16 03:06:21;;;;;;;2.07;1.93;;;-7.60;97.30;;;;;;4994995;28;20455;-86
2022/12/16 03:08:51;;;;;;;4.47;3.00;;;-7.70;97.30;;;;;;4993304;28;20480;-87
2022/12/16 03:11:19;;;;;;;6.50;2.83;;;-7.70;97.30;;;;;;4994756;28;21006;-87
2022/12/16 03:13:51;;;;;;;10.80;3.03;;;-7.70;97.30;;;;;;4994492;28;20430;-88
2022/12/16 03:16:23;;;;;;;3.30;3.10;;;-7.70;97.30;;;;;;4991621;28;20468;-83
2022/12/16 03:18:54;;;;;;;2.70;2.50;;;-7.70;97.30;;;;;;4999796;23;20502;-85
2022/12/16 03:21:23;;;;;;;3.40;3.20;;;-7.70;97.30;;;;;;4980620;28;20765;-83
2022/12/16 03:23:50;;;;;;;3.87;3.70;;;-7.70;97.30;;;;;;4998073;28;20422;-85
2022/12/16 03:26:23;;;;;;;3.03;2.80;;;-7.70;97.30;;;;;;4994700;28;20415;-86
2022/12/16 03:29:00;;;;;;;2.83;2.63;;;-7.70;97.30;;;;;;4984880;28;20437;-85
2022/12/16 03:31:39;;;;;;;4.23;3.97;;;-7.80;97.30;;;;;;4973602;28;20484;-86
2022/12/16 03:34:22;;;;;;;1.80;1.70;;;-7.70;97.30;;;;;;4980096;28;20431;-87
2022/12/16 03:36:52;;;;;;;3.43;3.23;;;-7.70;97.30;;;;;;4978747;28;20453;-88
2022/12/16 03:39:20;;;;;;;13.23;4.60;;;-7.70;97.30;;;;;;5004333;28;20430;-87
2022/12/16 03:41:50;;;;;;;7.40;4.47;;;-7.70;97.30;;;;;;4981842;28;20477;-85
2022/12/16 03:44:19;;;;;;;3.07;2.10;;;-7.70;97.30;;;;;;4997136;28;20449;-90
2022/12/16 03:46:48;;;;;;;6.03;3.90;;;-7.70;97.30;;;;;;4996886;28;20433;-88
2022/12/16 03:49:14;;;;;;;3.80;2.60;;;-7.70;97.30;;;;;;5002881;28;20418;-90
2022/12/16 03:51:40;;;;;;;4.20;2.27;;;-7.70;97.30;;;;;;5004914;28;20441;-89
2022/12/16 03:54:21;;;;;;;6.57;3.63;;;-7.70;97.30;;;;;;4990854;28;20465;-85
2022/12/16 03:57:02;;;;;;;5.57;3.63;;;-7.70;97.30;;;;;;4998146;28;20296;-87
2022/12/16 03:59:40;;;;;;;1.33;1.23;;;-7.70;97.30;;;;;;4992726;28;20492;-90
2022/12/16 04:02:06;;;;;;;4.87;3.53;;;-7.70;97.30;;;;;;5007221;28;20491;-87
2022/12/16 04:04:31;;;;;;;3.07;2.87;;;-7.70;97.30;;;;;;4994082;28;20430;-88
2022/12/16 04:09:41;;;;;;;2.97;2.77;;;-7.70;97.30;;;;;;5003502;28;20214;-84
2022/12/16 04:25:56;;;;;;;13.80;5.10;;;-7.80;97.30;;;;;;5003963;28;20432;-90
2022/12/16 04:28:22;;;;;;;5.40;4.77;;;-7.90;97.30;;;;;;4984729;28;20501;-90
2022/12/16 04:30:47;;;;;;;2.33;2.17;;;-7.90;97.30;;;;;;4994309;28;20190;-87
